Time;durP1;ratioP1;P1;durP2;ratioP2;P2;SDS_P1;SDS_P2;PMS_P1;PMS_P2;Temp;Humidity;BMP_temperature;BMP_pressure;BME280_temperature;BME280_humidity;BME280_pressure;Samples;Min_cycle;Max_cycle;Signal;HPM_P1;HPM_P2
2023/07/23 00:02:13;;;;;;;8.55;5.22;;;;;;;23.38;38.62;100720.66;5062689;27;97143;-72
2023/07/23 00:04:41;;;;;;;6.88;5.30;;;;;;;23.34;38.95;100719.22;5061187;27;102480;-72
2023/07/23 00:07:07;;;;;;;8.57;4.63;;;;;;;23.47;38.55;100715.44;5062526;27;98839;-73
2023/07/23 00:09:34;;;;;;;10.82;4.95;;;;;;;23.40;38.68;100718.69;5056601;27;97090;-73
2023/07/23 00:12:01;;;;;;;7.38;4.93;;;;;;;23.27;39.00;100709.97;5059436;27;96993;-73
2023/07/23 00:14:28;;;;;;;9.73;4.93;;;;;;;23.36;38.69;100706.47;5066233;27;97815;-74
2023/07/23 00:16:54;;;;;;;6.22;4.80;;;;;;;23.42;38.58;100711.31;5060545;27;97661;-72
2023/07/23 00:19:21;;;;;;;7.80;5.18;;;;;;;23.55;38.52;100708.41;5061941;27;96772;-71
2023/07/23 00:21:49;;;;;;;5.50;4.78;;;;;;;23.21;38.82;100705.13;5057090;27;97076;-72
2023/07/23 00:24:16;;;;;;;8.27;4.55;;;;;;;23.20;38.76;100700.72;5060193;27;98996;-73
2023/07/23 00:26:43;;;;;;;7.13;4.78;;;;;;;22.96;39.12;100698.38;5058911;27;97852;-72
2023/07/23 00:29:09;;;;;;;5.80;5.13;;;;;;;23.17;38.79;100695.59;5067276;27;96731;-73
2023/07/23 00:31:36;;;;;;;7.95;4.90;;;;;;;23.06;39.00;100684.94;5059835;27;97217;-73
2023/07/23 00:34:03;;;;;;;16.52;4.82;;;;;;;23.16;38.64;100680.44;5054857;27;97846;-73
2023/07/23 00:36:30;;;;;;;8.75;4.97;;;;;;;23.18;38.87;100681.13;5056018;27;98930;-73
2023/07/23 00:38:58;;;;;;;6.07;4.75;;;;;;;23.19;38.51;100676.59;5066896;27;96996;-74
2023/07/23 00:41:24;;;;;;;5.43;4.47;;;;;;;23.33;38.50;100677.09;5062874;27;97075;-72
2023/07/23 00:43:51;;;;;;;6.35;4.85;;;;;;;23.27;38.40;100672.25;5059954;27;101714;-74
2023/07/23 00:46:18;;;;;;;8.68;5.13;;;;;;;23.15;39.31;100667.09;5061889;27;100362;-73
2023/07/23 00:48:45;;;;;;;6.68;4.47;;;;;;;23.34;38.32;100667.16;5061592;27;100440;-73
2023/07/23 00:51:11;;;;;;;7.72;5.25;;;;;;;23.11;38.90;100663.81;5064893;27;96788;-73
2023/07/23 00:53:38;;;;;;;5.93;4.75;;;;;;;23.07;38.98;100657.00;5070418;27;99061;-73
2023/07/23 00:56:06;;;;;;;6.55;4.70;;;;;;;23.30;38.66;100657.66;5058363;27;99262;-73
2023/07/23 00:58:33;;;;;;;7.57;4.82;;;;;;;23.05;39.01;100659.81;5054968;27;97416;-73
2023/07/23 01:00:59;;;;;;;6.63;4.82;;;;;;;23.31;38.27;100659.31;5061263;27;97953;-74
2023/07/23 01:03:26;;;;;;;7.03;4.80;;;;;;;23.15;38.64;100654.47;5063023;27;99230;-72
2023/07/23 01:05:56;;;;;;;7.28;4.68;;;;;;;22.86;39.16;100654.34;5059393;27;98133;-72
2023/07/23 01:08:23;;;;;;;9.52;4.88;;;;;;;22.83;39.38;100643.88;5057515;27;97233;-74
2023/07/23 01:10:50;;;;;;;7.90;4.88;;;;;;;23.09;38.98;100644.25;5056140;27;97082;-73
2023/07/23 01:13:18;;;;;;;9.60;5.10;;;;;;;23.05;39.00;100642.78;5058769;27;98985;-72
2023/07/23 01:15:44;;;;;;;13.38;4.80;;;;;;;23.11;39.24;100636.84;5055054;27;100159;-73
2023/07/23 01:18:12;;;;;;;6.53;4.85;;;;;;;23.07;39.18;100634.59;5058124;27;96775;-73
2023/07/23 01:20:38;;;;;;;5.38;4.70;;;;;;;23.11;38.96;100623.38;5051444;27;96940;-73
2023/07/23 01:23:06;;;;;;;7.25;4.82;;;;;;;23.16;38.79;100633.78;5062311;27;97889;-72
2023/07/23 01:25:32;;;;;;;7.32;4.65;;;;;;;23.17;38.99;100632.78;5061255;27;99291;-73
2023/07/23 01:27:59;;;;;;;6.53;4.88;;;;;;;23.12;39.35;100633.16;5064265;27;96860;-74
2023/07/23 01:30:26;;;;;;;8.65;4.65;;;;;;;23.36;38.97;100624.75;5055870;27;96999;-73
2023/07/23 01:32:53;;;;;;;8.25;4.05;;;;;;;23.27;38.99;100628.25;5052802;27;100944;-73
2023/07/23 01:35:21;;;;;;;5.97;4.63;;;;;;;23.29;39.28;100628.97;5058184;27;99289;-72
2023/07/23 01:37:48;;;;;;;7.38;4.65;;;;;;;23.17;39.07;100636.31;5058071;27;97157;-70
2023/07/23 01:40:16;;;;;;;6.57;4.78;;;;;;;23.29;39.01;100642.47;5066103;27;96779;-72
2023/07/23 01:42:46;;;;;;;9.57;4.70;;;;;;;23.15;39.75;100643.69;5057598;27;102106;-73
2023/07/23 01:45:13;;;;;;;7.40;4.88;;;;;;;23.23;40.24;100649.25;5058273;27;98574;-72
2023/07/23 01:47:40;;;;;;;7.25;4.43;;;;;;;23.12;40.55;100653.88;5055684;27;96830;-73
2023/07/23 01:50:07;;;;;;;4.95;4.45;;;;;;;22.96;40.99;100647.19;5055063;27;97209;-73
2023/07/23 01:52:34;;;;;;;7.60;4.55;;;;;;;23.10;41.50;100647.78;5055822;27;99039;-73
2023/07/23 01:55:00;;;;;;;7.70;5.22;;;;;;;23.04;42.56;100652.72;5057892;27;98879;-72
2023/07/23 01:57:28;;;;;;;4.75;4.35;;;;;;;22.92;42.45;100680.75;5057188;27;97200;-73
2023/07/23 01:59:55;;;;;;;10.38;5.20;;;;;;;22.74;43.47;100687.75;5063396;27;96792;-72
2023/07/23 02:02:22;;;;;;;10.10;5.07;;;;;;;22.74;43.48;100687.75;5059792;27;98503;-73
2023/07/23 02:04:48;;;;;;;9.48;4.72;;;;;;;22.40;44.25;100694.31;5055778;27;102151;-73
2023/07/23 02:07:15;;;;;;;6.95;4.68;;;;;;;22.51;44.56;100692.41;5061474;27;97138;-71
2023/07/23 02:09:42;;;;;;;7.18;5.13;;;;;;;22.58;44.19;100698.97;5057301;27;96825;-72
2023/07/23 02:12:09;;;;;;;5.85;5.05;;;;;;;22.36;44.67;100704.50;5058954;27;100420;-72
2023/07/23 02:14:36;;;;;;;7.78;4.63;;;;;;;22.41;45.40;100704.94;5053499;27;99199;-73
2023/07/23 02:17:03;;;;;;;6.22;4.80;;;;;;;22.49;45.47;100704.31;5062863;27;96877;-74
2023/07/23 02:19:30;;;;;;;7.70;5.15;;;;;;;22.49;45.85;100707.00;5056327;27;97454;-73
2023/07/23 02:21:56;;;;;;;6.95;4.95;;;;;;;22.51;46.15;100707.72;5061220;27;98896;-73
2023/07/23 02:24:23;;;;;;;8.38;4.90;;;;;;;22.55;47.45;100709.16;5066421;27;98425;-73
2023/07/23 02:26:49;;;;;;;6.60;4.85;;;;;;;22.51;48.34;100710.41;5059770;27;97754;-73
2023/07/23 02:29:15;;;;;;;7.45;5.43;;;;;;;22.50;48.55;100704.19;5061193;27;96897;-74
2023/07/23 02:31:43;;;;;;;9.60;5.45;;;;;;;22.62;47.50;100708.50;5062811;27;98955;-73
2023/07/23 02:34:09;;;;;;;6.35;4.47;;;;;;;22.62;47.65;100703.13;5054918;27;99824;-73
2023/07/23 02:36:36;;;;;;;9.43;5.43;;;;;;;22.35;48.55;100710.00;5060800;27;96866;-73
2023/07/23 02:39:03;;;;;;;6.68;4.93;;;;;;;22.19;49.61;100711.28;5063406;27;96779;-73
2023/07/23 02:41:29;;;;;;;7.85;4.88;;;;;;;22.51;49.22;100703.16;5055805;27;99053;-73
2023/07/23 02:43:56;;;;;;;6.80;5.25;;;;;;;22.90;48.68;100690.84;5060769;27;102055;-73
2023/07/23 02:46:22;;;;;;;8.13;5.35;;;;;;;22.68;49.60;100693.66;5059793;27;96681;-73
2023/07/23 02:48:50;;;;;;;11.13;5.35;;;;;;;22.24;52.45;100702.84;5057041;27;96794;-73
2023/07/23 02:51:16;;;;;;;7.30;5.50;;;;;;;22.63;51.47;100698.59;5059349;27;99068;-74
2023/07/23 02:53:45;;;;;;;7.95;5.88;;;;;;;22.58;51.56;100698.09;5054737;27;98684;-74
2023/07/23 02:56:12;;;;;;;8.30;5.50;;;;;;;22.38;53.25;100707.94;5051807;27;97641;-73
2023/07/23 02:58:38;;;;;;;7.75;4.95;;;;;;;22.26;52.81;100709.78;5053782;27;96898;-73
2023/07/23 03:01:04;;;;;;;7.22;5.65;;;;;;;22.40;53.50;100708.63;5058427;27;99149;-64
2023/07/23 03:03:31;;;;;;;7.05;5.60;;;;;;;22.12;55.57;100706.59;5058100;27;99211;-64
2023/07/23 03:05:59;;;;;;;8.15;5.60;;;;;;;22.00;54.48;100704.91;5059328;27;97646;-64
2023/07/23 03:08:25;;;;;;;7.32;5.80;;;;;;;21.90;57.23;100706.63;5057854;27;96794;-64
2023/07/23 03:10:52;;;;;;;6.20;5.32;;;;;;;21.72;55.41;100707.19;5050055;27;99046;-64
2023/07/23 03:13:18;;;;;;;9.00;6.03;;;;;;;21.82;56.08;100696.50;5056642;27;97509;-64
2023/07/23 03:15:45;;;;;;;10.02;6.07;;;;;;;22.08;56.81;100692.53;5052798;27;97513;-64
2023/07/23 03:18:11;;;;;;;10.52;6.00;;;;;;;21.88;55.79;100696.00;5064817;27;96798;-65
2023/07/23 03:20:38;;;;;;;11.18;6.32;;;;;;;21.89;55.60;100692.31;5058962;27;99452;-65
2023/07/23 03:23:06;;;;;;;6.00;5.40;;;;;;;21.81;56.25;100694.78;5057737;27;98859;-63
2023/07/23 03:25:32;;;;;;;7.13;5.95;;;;;;;21.68;57.13;100704.84;5051760;27;97157;-64
2023/07/23 03:27:59;;;;;;;9.50;5.90;;;;;;;21.77;54.97;100696.91;5060017;27;97705;-64
2023/07/23 03:30:25;;;;;;;10.65;6.53;;;;;;;21.63;56.70;100699.88;5059600;27;99364;-64
2023/07/23 03:32:52;;;;;;;9.45;6.78;;;;;;;21.71;57.93;100696.56;5057971;27;98058;-64
2023/07/23 03:35:19;;;;;;;11.38;6.63;;;;;;;21.84;57.95;100697.25;5053207;27;97134;-64
2023/07/23 03:37:45;;;;;;;9.52;7.00;;;;;;;21.76;58.05;100695.19;5059234;27;96770;-64
2023/07/23 03:40:13;;;;;;;8.57;6.40;;;;;;;21.79;56.63;100700.28;5058471;27;99559;-64
2023/07/23 03:42:40;;;;;;;9.40;6.50;;;;;;;21.81;56.95;100706.41;5056631;27;98924;-64
2023/07/23 03:45:08;;;;;;;8.70;6.40;;;;;;;21.74;58.43;100702.50;5055226;27;97301;-64
2023/07/23 03:47:34;;;;;;;7.18;6.28;;;;;;;21.66;58.60;100710.34;5063051;27;96835;-66
2023/07/23 03:50:01;;;;;;;14.68;6.97;;;;;;;21.75;56.23;100709.59;5061710;27;97820;-65
2023/07/23 03:52:27;;;;;;;10.60;6.22;;;;;;;21.75;55.51;100708.75;5072849;27;99197;-64
2023/07/23 03:54:53;;;;;;;8.13;6.30;;;;;;;21.69;56.31;100703.88;5054234;27;96795;-63
2023/07/23 03:57:21;;;;;;;9.57;6.07;;;;;;;21.86;56.50;100701.50;5066464;27;97222;-65
2023/07/23 03:59:48;;;;;;;9.45;5.93;;;;;;;21.96;55.33;100703.47;5062380;27;102166;-64
2023/07/23 04:02:14;;;;;;;6.72;6.03;;;;;;;21.67;55.76;100701.31;5064403;27;97987;-64
2023/07/23 04:04:41;;;;;;;13.13;7.13;;;;;;;21.75;55.06;100701.53;5054741;27;97097;-64
2023/07/23 04:07:08;;;;;;;7.70;5.95;;;;;;;21.81;54.68;100700.16;5067086;27;97408;-64
2023/07/23 04:09:35;;;;;;;11.90;6.60;;;;;;;21.79;56.22;100697.59;5060617;27;97637;-64
2023/07/23 04:12:02;;;;;;;9.25;6.70;;;;;;;21.90;55.21;100699.41;5060917;27;98385;-63
2023/07/23 04:14:29;;;;;;;8.70;6.72;;;;;;;21.90;56.62;100703.94;5063772;27;96661;-64
2023/07/23 04:16:56;;;;;;;9.73;6.45;;;;;;;21.72;57.51;100700.94;5063913;27;100290;-65
2023/07/23 04:19:22;;;;;;;7.72;6.20;;;;;;;21.83;57.66;100693.69;5062721;27;98881;-64
2023/07/23 04:21:50;;;;;;;9.68;7.10;;;;;;;21.91;56.74;100697.59;5066943;27;97450;-65
2023/07/23 04:24:16;;;;;;;8.38;6.30;;;;;;;21.96;56.38;100698.09;5060753;27;96735;-65
2023/07/23 04:26:42;;;;;;;7.75;6.65;;;;;;;22.03;56.26;100697.44;5057450;27;96876;-64
2023/07/23 04:29:09;;;;;;;10.50;6.65;;;;;;;21.98;55.92;100693.44;5061098;27;98894;-64
2023/07/23 04:31:37;;;;;;;10.43;6.60;;;;;;;22.04;56.04;100692.91;5066321;27;98849;-64
2023/07/23 04:34:03;;;;;;;9.05;6.13;;;;;;;21.87;56.60;100684.38;5064894;27;96680;-64
2023/07/23 04:36:29;;;;;;;8.82;6.18;;;;;;;22.16;55.92;100687.34;5056760;27;97038;-65
2023/07/23 04:38:56;;;;;;;9.27;6.80;;;;;;;22.03;56.57;100684.00;5064570;27;98983;-65
2023/07/23 04:41:23;;;;;;;8.07;6.40;;;;;;;22.13;56.73;100694.81;5059153;27;99139;-65
2023/07/23 04:43:49;;;;;;;9.27;6.47;;;;;;;21.98;56.74;100694.28;5061368;27;96911;-64
2023/07/23 04:46:15;;;;;;;7.55;6.50;;;;;;;21.77;57.32;100691.53;5060283;27;96770;-63
2023/07/23 04:48:43;;;;;;;10.95;6.75;;;;;;;21.75;57.35;100693.47;5061683;27;98945;-64
2023/07/23 04:51:10;;;;;;;10.02;6.55;;;;;;;22.08;56.51;100681.75;5053287;27;98998;-64
2023/07/23 04:53:36;;;;;;;9.00;6.68;;;;;;;22.02;56.59;100690.34;5064455;27;96930;-64
2023/07/23 04:56:05;;;;;;;14.18;7.90;;;;;;;22.05;57.03;100692.81;5053076;27;96992;-64
2023/07/23 04:58:32;;;;;;;9.15;6.72;;;;;;;22.23;57.01;100693.06;5057022;27;98989;-64
2023/07/23 05:01:01;;;;;;;9.20;6.63;;;;;;;22.30;56.76;100696.94;5056078;27;99125;-64
2023/07/23 05:03:27;;;;;;;9.15;7.00;;;;;;;22.23;56.71;100701.16;5061209;27;96859;-64
2023/07/23 05:05:55;;;;;;;8.65;6.32;;;;;;;22.40;55.90;100699.69;5058292;27;96804;-65
2023/07/23 05:08:22;;;;;;;9.90;6.20;;;;;;;22.31;55.56;100705.88;5065808;27;99759;-64
2023/07/23 05:10:49;;;;;;;8.90;6.57;;;;;;;22.15;55.62;100704.47;5055719;27;99281;-64
2023/07/23 05:13:16;;;;;;;11.82;7.20;;;;;;;22.37;55.13;100708.06;5054148;27;97450;-63
2023/07/23 05:15:42;;;;;;;11.65;6.97;;;;;;;22.20;55.18;100702.25;5059227;27;96853;-65
2023/07/23 05:18:09;;;;;;;7.95;6.60;;;;;;;22.18;55.23;100701.53;5059820;27;99574;-64
2023/07/23 05:20:35;;;;;;;10.98;6.93;;;;;;;22.15;55.76;100717.94;5058903;27;98892;-63
2023/07/23 05:23:03;;;;;;;9.48;6.07;;;;;;;22.15;55.80;100706.31;5060947;27;96815;-64
2023/07/23 05:25:30;;;;;;;8.07;6.70;;;;;;;22.26;55.35;100708.94;5055036;27;96980;-63
2023/07/23 05:27:56;;;;;;;9.68;7.60;;;;;;;22.72;54.19;100689.69;5064989;27;98982;-63
2023/07/23 05:30:23;;;;;;;9.70;6.93;;;;;;;22.64;53.90;100681.44;5062782;27;98838;-63
2023/07/23 05:32:50;;;;;;;8.10;6.60;;;;;;;22.71;53.78;100687.97;5057384;27;96940;-64
2023/07/23 05:35:16;;;;;;;8.05;6.63;;;;;;;22.52;54.19;100694.09;5060042;27;97001;-64
2023/07/23 05:37:42;;;;;;;12.45;6.53;;;;;;;22.48;54.63;100697.22;5062125;27;100003;-64
2023/07/23 05:40:11;;;;;;;9.93;6.65;;;;;;;22.76;54.20;100693.03;5058044;27;102447;-64
2023/07/23 05:42:37;;;;;;;12.02;6.90;;;;;;;22.79;54.25;100695.44;5061185;27;96774;-64
2023/07/23 05:45:04;;;;;;;7.32;6.25;;;;;;;22.92;53.91;100698.75;5057847;27;96837;-64
2023/07/23 05:47:31;;;;;;;9.30;6.75;;;;;;;23.02;53.79;100691.59;5059765;27;101247;-64
2023/07/23 05:49:57;;;;;;;11.68;6.90;;;;;;;23.12;54.06;100692.47;5063086;27;99041;-63
2023/07/23 05:52:24;;;;;;;9.75;6.85;;;;;;;23.53;53.11;100698.72;5061705;27;96962;-64
2023/07/23 05:54:50;;;;;;;9.43;6.43;;;;;;;23.27;54.00;100696.50;5057763;27;96980;-64
2023/07/23 05:57:18;;;;;;;13.00;6.60;;;;;;;23.38;53.14;100692.84;5047918;27;99889;-64
2023/07/23 05:59:44;;;;;;;8.82;6.53;;;;;;;23.33;52.89;100685.16;5068449;27;97566;-64
2023/07/23 06:02:11;;;;;;;7.75;5.78;;;;;;;23.47;52.67;100686.66;5058397;27;96883;-64
2023/07/23 06:04:38;;;;;;;9.07;6.85;;;;;;;23.67;51.56;100695.66;5060211;27;96801;-64
2023/07/23 06:07:05;;;;;;;8.13;6.00;;;;;;;23.77;51.44;100688.41;5062495;27;100445;-64
2023/07/23 06:09:32;;;;;;;8.80;6.60;;;;;;;23.93;50.99;100690.56;5063497;27;99274;-64
2023/07/23 06:11:58;;;;;;;8.40;6.03;;;;;;;24.00;50.76;100684.47;5060400;27;96766;-64
2023/07/23 06:14:26;;;;;;;9.80;6.65;;;;;;;24.10;49.71;100689.84;5066890;27;97115;-64
2023/07/23 06:16:53;;;;;;;9.30;5.88;;;;;;;24.00;49.63;100683.59;5060858;27;99091;-64
2023/07/23 06:19:19;;;;;;;7.80;5.32;;;;;;;24.50;48.59;100676.19;5059755;27;100262;-64
2023/07/23 06:21:46;;;;;;;6.75;5.68;;;;;;;24.77;46.73;100678.97;5057315;27;96784;-65
2023/07/23 06:24:12;;;;;;;10.18;5.35;;;;;;;25.01;46.14;100675.75;5058779;27;96891;-65
2023/07/23 06:26:39;;;;;;;6.55;4.90;;;;;;;25.26;45.49;100674.25;5056573;27;98974;-64
2023/07/23 06:29:06;;;;;;;5.70;4.80;;;;;;;25.14;45.33;100667.34;5058964;27;99096;-64
2023/07/23 06:31:34;;;;;;;6.47;5.05;;;;;;;24.94;45.62;100663.88;5063276;27;97814;-64
2023/07/23 06:34:00;;;;;;;8.35;4.70;;;;;;;25.01;44.20;100665.81;5060666;27;96846;-63
2023/07/23 06:36:27;;;;;;;7.00;4.43;;;;;;;24.99;44.99;100651.63;5058233;27;97716;-64
2023/07/23 06:38:53;;;;;;;5.90;4.68;;;;;;;24.91;45.27;100647.94;5063994;27;98850;-64
2023/07/23 06:41:19;;;;;;;7.45;4.60;;;;;;;25.00;45.01;100647.91;5059852;27;96762;-64
2023/07/23 06:43:46;;;;;;;6.55;5.03;;;;;;;25.09;45.16;100653.41;5052678;27;96820;-64
2023/07/23 06:46:17;;;;;;;6.55;4.57;;;;;;;25.16;44.89;100649.09;5057562;27;99373;-65
2023/07/23 06:48:44;;;;;;;5.38;4.85;;;;;;;24.64;44.81;100643.31;5054040;27;101371;-64
2023/07/23 06:51:11;;;;;;;5.82;4.40;;;;;;;24.88;44.38;100649.03;5056732;27;96718;-64
2023/07/23 06:53:37;;;;;;;5.80;4.85;;;;;;;24.90;44.68;100640.81;5054657;27;96896;-65
2023/07/23 06:56:05;;;;;;;6.28;4.30;;;;;;;24.92;44.78;100639.69;5054711;27;101490;-64
2023/07/23 06:58:34;;;;;;;8.38;4.43;;;;;;;25.35;43.74;100644.44;5047746;27;99357;-64
2023/07/23 07:01:01;;;;;;;7.97;4.88;;;;;;;25.96;42.98;100645.59;5053891;27;96888;-64
2023/07/23 07:03:27;;;;;;;4.65;4.18;;;;;;;26.39;41.91;100647.47;5065046;27;96918;-64
2023/07/23 07:05:55;;;;;;;8.55;4.35;;;;;;;26.27;41.57;100644.19;5057033;27;97789;-64
2023/07/23 07:08:22;;;;;;;11.18;5.72;;;;;;;26.51;41.38;100649.78;5064106;27;98745;-65
2023/07/23 07:10:49;;;;;;;8.57;4.90;;;;;;;27.04;40.41;100648.75;5066131;27;96908;-65
2023/07/23 07:13:15;;;;;;;7.88;4.85;;;;;;;26.75;40.03;100653.66;5065709;27;96892;-65
2023/07/23 07:15:42;;;;;;;7.53;4.78;;;;;;;26.77;40.47;100657.06;5070199;27;98792;-65
2023/07/23 07:18:09;;;;;;;7.70;4.90;;;;;;;27.02;40.10;100649.94;5059052;27;99869;-66
2023/07/23 07:20:36;;;;;;;5.93;4.95;;;;;;;26.64;40.25;100649.38;5070434;27;96829;-63
2023/07/23 07:23:03;;;;;;;6.03;4.60;;;;;;;26.50;40.92;100642.66;5067843;27;96763;-64
2023/07/23 07:25:30;;;;;;;5.32;4.72;;;;;;;26.28;41.02;100640.47;5054788;27;99430;-65
2023/07/23 07:27:56;;;;;;;7.90;5.10;;;;;;;26.29;41.40;100636.75;5058203;27;100948;-65
2023/07/23 07:30:22;;;;;;;8.05;5.20;;;;;;;26.47;41.42;100642.13;5065316;27;96862;-65
2023/07/23 07:32:49;;;;;;;7.75;5.75;;;;;;;26.32;41.15;100635.59;5062528;27;96829;-65
2023/07/23 07:35:15;;;;;;;7.03;4.60;;;;;;;26.36;40.70;100648.66;5054148;27;98262;-65
2023/07/23 07:37:42;;;;;;;5.22;4.30;;;;;;;26.33;40.94;100646.25;5062143;27;100617;-64
2023/07/23 07:40:12;;;;;;;9.18;4.72;;;;;;;26.51;40.87;100647.09;5063521;27;96881;-65
2023/07/23 07:42:39;;;;;;;7.72;5.03;;;;;;;26.87;39.70;100639.66;5063377;27;97724;-65
2023/07/23 07:45:07;;;;;;;6.18;4.72;;;;;;;26.50;39.84;100645.38;5062404;27;99374;-65
2023/07/23 07:47:33;;;;;;;6.45;4.22;;;;;;;26.76;39.41;100636.38;5059791;27;97720;-65
2023/07/23 07:50:00;;;;;;;6.45;4.50;;;;;;;26.85;38.72;100641.66;5069775;27;96903;-64
2023/07/23 07:52:26;;;;;;;5.65;4.63;;;;;;;26.97;38.27;100647.72;5055717;27;97228;-65
2023/07/23 07:54:52;;;;;;;10.13;4.43;;;;;;;27.06;38.63;100641.28;5068548;27;99902;-65
2023/07/23 07:57:21;;;;;;;7.47;4.85;;;;;;;26.90;38.16;100636.66;5055942;27;98847;-63
2023/07/23 07:59:48;;;;;;;7.47;4.57;;;;;;;26.66;38.50;100643.75;5068327;27;96770;-64
2023/07/23 08:02:15;;;;;;;4.80;4.20;;;;;;;26.82;38.35;100631.16;5059441;27;97936;-64
2023/07/23 08:04:42;;;;;;;6.63;4.10;;;;;;;26.65;39.51;100623.13;5054370;27;98947;-64
2023/07/23 08:07:09;;;;;;;7.18;4.40;;;;;;;26.30;39.28;100619.50;5057244;27;98373;-65
2023/07/23 08:09:38;;;;;;;5.55;4.13;;;;;;;26.46;38.55;100608.75;5064393;27;96667;-65
2023/07/23 08:12:06;;;;;;;6.22;4.47;;;;;;;26.51;38.68;100608.31;5055927;27;96943;-64
2023/07/23 08:14:34;;;;;;;6.07;4.28;;;;;;;26.43;38.78;100606.38;5058271;27;99523;-64
2023/07/23 08:17:01;;;;;;;6.78;4.22;;;;;;;26.62;38.80;100605.31;5060653;27;99604;-63
2023/07/23 08:19:27;;;;;;;7.00;4.55;;;;;;;26.47;38.58;100613.16;5063691;27;96682;-66
2023/07/23 08:21:54;;;;;;;4.40;4.00;;;;;;;26.49;38.43;100607.59;5056648;27;96887;-66
2023/07/23 08:24:21;;;;;;;5.25;3.95;;;;;;;26.82;38.22;100603.22;5058952;27;99246;-63
2023/07/23 08:26:50;;;;;;;7.05;4.22;;;;;;;26.81;38.06;100606.94;5064808;27;99024;-65
2023/07/23 08:29:20;;;;;;;6.63;4.15;;;;;;;26.96;38.26;100602.63;5064920;27;97377;-65
2023/07/23 08:31:50;;;;;;;6.78;3.70;;;;;;;27.10;37.05;100599.28;5061042;27;97054;-64
2023/07/23 08:34:17;;;;;;;4.82;3.70;;;;;;;27.06;37.05;100597.06;5056653;27;99005;-65
2023/07/23 08:36:45;;;;;;;4.68;3.40;;;;;;;27.24;36.86;100604.06;5055679;27;98933;-64
2023/07/23 08:39:12;;;;;;;4.78;3.60;;;;;;;27.00;36.62;100595.84;5055598;27;98470;-65
2023/07/23 08:42:02;;;;;;;7.28;4.30;;;;;;;26.65;36.84;100593.31;5056399;27;96777;-67
2023/07/23 08:44:54;;;;;;;4.45;3.72;;;;;;;26.77;37.29;100597.44;5047826;27;98914;-65
2023/07/23 08:47:23;;;;;;;5.50;4.38;;;;;;;26.73;36.90;100601.44;5062783;27;99276;-64
2023/07/23 08:49:52;;;;;;;5.90;3.60;;;;;;;27.01;36.63;100600.28;5061506;27;97668;-64
2023/07/23 08:52:20;;;;;;;7.78;3.88;;;;;;;27.30;36.45;100598.00;5062105;27;96949;-65
2023/07/23 08:54:48;;;;;;;5.32;3.70;;;;;;;27.48;36.19;100597.00;5061337;27;100037;-64
2023/07/23 08:57:14;;;;;;;5.53;4.03;;;;;;;27.44;35.86;100601.09;5062603;27;99220;-65
2023/07/23 08:59:42;;;;;;;4.88;3.85;;;;;;;27.54;36.11;100601.81;5055600;27;96734;-65
2023/07/23 09:02:11;;;;;;;4.75;3.95;;;;;;;27.58;35.86;100601.28;5061885;27;96758;-64
2023/07/23 09:04:39;;;;;;;6.20;3.95;;;;;;;28.09;35.46;100599.28;5062324;27;98372;-64
2023/07/23 09:07:11;;;;;;;6.45;4.07;;;;;;;27.98;35.18;100595.03;5062503;27;99286;-64
2023/07/23 09:09:38;;;;;;;6.07;4.15;;;;;;;28.04;34.96;100599.78;5059727;27;97009;-65
2023/07/23 09:12:04;;;;;;;5.03;4.00;;;;;;;27.88;34.67;100594.38;5062270;27;96844;-64
2023/07/23 09:14:42;;;;;;;6.25;4.35;;;;;;;28.39;34.70;100587.72;5061982;27;98956;-65
2023/07/23 09:17:17;;;;;;;5.82;3.90;;;;;;;28.46;34.61;100582.44;5054926;27;98759;-64
2023/07/23 09:19:44;;;;;;;8.07;4.10;;;;;;;28.12;34.00;100586.22;5062887;27;97128;-65
2023/07/23 09:22:11;;;;;;;7.47;4.07;;;;;;;28.17;34.17;100588.44;5056214;27;96805;-64
2023/07/23 09:24:37;;;;;;;4.82;3.67;;;;;;;28.42;33.93;100587.38;5052093;27;98958;-65
2023/07/23 09:27:04;;;;;;;5.75;4.50;;;;;;;27.96;34.50;100585.38;5058087;27;98984;-65
2023/07/23 09:29:35;;;;;;;4.97;3.60;;;;;;;28.19;34.20;100590.97;5061913;27;96884;-64
2023/07/23 09:32:02;;;;;;;8.80;4.22;;;;;;;28.31;33.56;100578.72;5055780;27;96815;-64
2023/07/23 09:34:28;;;;;;;4.85;3.70;;;;;;;28.26;34.17;100578.41;5060039;27;99069;-64
2023/07/23 09:36:56;;;;;;;6.68;3.40;;;;;;;28.57;33.45;100578.50;5058946;27;99335;-65
2023/07/23 09:39:25;;;;;;;8.63;3.33;;;;;;;28.63;33.27;100578.66;5057558;27;96762;-65
2023/07/23 09:41:52;;;;;;;8.27;4.15;;;;;;;28.53;33.23;100564.41;5053634;27;96871;-65
2023/07/23 09:44:18;;;;;;;4.03;3.63;;;;;;;28.55;32.79;100565.09;5054443;27;100349;-65
2023/07/23 09:46:46;;;;;;;3.80;3.50;;;;;;;28.95;32.59;100555.13;5054303;27;97795;-64
2023/07/23 09:49:14;;;;;;;5.18;3.80;;;;;;;29.07;31.56;100559.13;5064389;27;97121;-65
2023/07/23 09:51:51;;;;;;;8.15;3.95;;;;;;;28.88;31.49;100549.53;5058550;27;97513;-67
2023/07/23 09:54:20;;;;;;;5.72;3.58;;;;;;;28.96;30.68;100546.75;5060761;27;98910;-64
2023/07/23 09:56:48;;;;;;;8.68;3.65;;;;;;;28.97;30.75;100550.34;5058574;27;98005;-64
2023/07/23 09:59:16;;;;;;;5.75;3.78;;;;;;;29.12;30.68;100546.69;5056481;27;96796;-65
2023/07/23 10:01:43;;;;;;;4.60;3.63;;;;;;;29.22;29.99;100536.41;5062751;27;96778;-64
2023/07/23 10:04:12;;;;;;;6.82;3.63;;;;;;;29.11;29.93;100535.97;5059463;27;99117;-64
2023/07/23 10:06:38;;;;;;;3.80;3.40;;;;;;;29.02;30.47;100532.44;5062271;27;97803;-65
2023/07/23 10:09:06;;;;;;;4.75;3.60;;;;;;;29.15;29.96;100526.41;5059442;27;96733;-65
2023/07/23 10:11:34;;;;;;;5.97;3.72;;;;;;;29.36;29.90;100526.66;5058870;27;96853;-65
2023/07/23 10:14:02;;;;;;;4.43;4.00;;;;;;;29.35;29.52;100513.22;5053516;27;99307;-65
2023/07/23 10:16:30;;;;;;;7.45;3.78;;;;;;;29.80;29.85;100509.66;5063028;27;99678;-65
2023/07/23 10:18:58;;;;;;;4.20;3.17;;;;;;;29.78;29.70;100519.88;5061144;27;96977;-65
2023/07/23 10:21:30;;;;;;;3.38;3.00;;;;;;;29.69;29.07;100519.09;5054238;27;97062;-64
2023/07/23 10:23:58;;;;;;;8.13;4.00;;;;;;;29.70;29.30;100510.72;5057809;27;101837;-64
2023/07/23 10:26:26;;;;;;;7.85;3.60;;;;;;;29.65;29.24;100513.16;5057873;27;99389;-65
2023/07/23 10:28:58;;;;;;;6.78;3.55;;;;;;;29.76;28.70;100505.56;5055013;27;97010;-65
2023/07/23 10:31:27;;;;;;;7.30;3.95;;;;;;;29.71;28.76;100503.41;5052963;27;96877;-65
2023/07/23 10:33:54;;;;;;;5.68;3.40;;;;;;;29.17;29.84;100508.06;5056494;27;99527;-64
2023/07/23 10:36:22;;;;;;;5.50;3.67;;;;;;;29.45;29.56;100501.09;5063110;27;98144;-65
2023/07/23 10:39:16;;;;;;;5.65;3.63;;;;;;;29.79;29.31;100494.34;5058430;27;96994;-64
2023/07/23 10:41:55;;;;;;;5.78;3.50;;;;;;;29.88;29.70;100493.19;5066769;27;96785;-65
2023/07/23 10:44:25;;;;;;;10.60;3.67;;;;;;;30.23;29.67;100481.63;5049215;27;99414;-64
2023/07/23 10:46:53;;;;;;;5.55;3.47;;;;;;;30.53;28.87;100487.09;5066306;27;96752;-63
2023/07/23 10:49:22;;;;;;;5.97;3.63;;;;;;;30.23;29.10;100486.22;5062355;27;96845;-65
2023/07/23 10:51:50;;;;;;;7.28;3.35;;;;;;;30.12;29.37;100473.94;5057711;27;96814;-65
2023/07/23 10:54:18;;;;;;;5.53;3.47;;;;;;;30.20;29.66;100470.25;5053372;27;99079;-65
2023/07/23 10:56:46;;;;;;;5.00;3.65;;;;;;;29.88;29.98;100474.13;5051074;27;101984;-64
2023/07/23 10:59:15;;;;;;;9.80;3.70;;;;;;;29.77;30.55;100474.59;5062197;27;96805;-64
2023/07/23 11:01:44;;;;;;;4.60;3.60;;;;;;;29.77;29.85;100469.16;5053499;27;97194;-65
2023/07/23 11:04:12;;;;;;;15.90;3.58;;;;;;;29.88;30.13;100460.50;5055837;27;99100;-64
2023/07/23 11:06:53;;;;;;;5.00;3.38;;;;;;;30.29;29.24;100464.53;5051588;27;99314;-64
2023/07/23 11:09:26;;;;;;;6.95;3.72;;;;;;;30.21;29.31;100444.69;5053743;27;96720;-64
2023/07/23 11:11:53;;;;;;;4.03;3.60;;;;;;;30.18;29.82;100443.19;5054894;27;96756;-64
2023/07/23 11:14:21;;;;;;;5.25;3.28;;;;;;;30.33;29.82;100429.53;5052717;27;98666;-64
2023/07/23 11:16:51;;;;;;;4.15;3.22;;;;;;;30.56;29.00;100433.03;5056308;27;99198;-64
2023/07/23 11:19:19;;;;;;;8.73;3.60;;;;;;;30.67;28.77;100428.94;5062793;27;97162;-64
2023/07/23 11:21:47;;;;;;;4.40;3.60;;;;;;;30.80;29.30;100431.84;5059314;27;96907;-64
2023/07/23 11:24:14;;;;;;;5.68;3.53;;;;;;;30.70;29.28;100423.13;5063869;27;98942;-65
2023/07/23 11:26:41;;;;;;;9.02;3.45;;;;;;;30.77;29.24;100424.06;5058166;27;97798;-65